Branson, Colorado
Current Conditions -  °F | °C
As of 11:54 AM on Friday 21 Nov 2014 (Local Time) from KTAD Reporting Station
Clear Clear  
Wind Chill: 51°   Ceiling: Unl
Heat Index: 51°   Visibility: NA
Dew Point: 26°   Wind: 5mph
Humidity: 38%   Direction: 40°NE
Pressure: 29.96"   Gusts: NA
Location:  37.02°N, 103.88°W
Report Text: KTAD 211854Z AUTO 04004KT CLR 11/M03 A2996 RMK AO2 SLP128 T01061033 PWINO PNO $
Loading
Personal Weather Stations






























Interactive Weather Map New forecast layout! Learn more

10-Day Weather Forecast

Advertisements
Track Severe Weather on mobile